sensor_id;sensor_type;location;lat;lon;timestamp;P1;durP1;ratioP1;P2;durP2;ratioP2
22557;SDS011;11445;53.816;8.902;2023-06-14T00:02:02;6.40;;;2.42;;
22557;SDS011;11445;53.816;8.902;2023-06-14T00:04:29;5.20;;;2.40;;
22557;SDS011;11445;53.816;8.902;2023-06-14T00:06:56;5.47;;;2.22;;
22557;SDS011;11445;53.816;8.902;2023-06-14T00:09:24;2.67;;;2.40;;
22557;SDS011;11445;53.816;8.902;2023-06-14T00:11:51;5.75;;;2.30;;
22557;SDS011;11445;53.816;8.902;2023-06-14T00:14:18;3.42;;;2.28;;
22557;SDS011;11445;53.816;8.902;2023-06-14T00:16:45;6.68;;;2.67;;
22557;SDS011;11445;53.816;8.902;2023-06-14T00:19:12;6.38;;;2.95;;
22557;SDS011;11445;53.816;8.902;2023-06-14T00:21:39;4.80;;;2.83;;
22557;SDS011;11445;53.816;8.902;2023-06-14T00:24:07;7.93;;;2.75;;
22557;SDS011;11445;53.816;8.902;2023-06-14T00:26:35;6.22;;;2.05;;
22557;SDS011;11445;53.816;8.902;2023-06-14T00:29:02;4.63;;;2.75;;
22557;SDS011;11445;53.816;8.902;2023-06-14T00:31:29;4.15;;;2.70;;
22557;SDS011;11445;53.816;8.902;2023-06-14T00:33:56;5.68;;;2.72;;
22557;SDS011;11445;53.816;8.902;2023-06-14T00:36:22;6.22;;;2.92;;
22557;SDS011;11445;53.816;8.902;2023-06-14T00:38:49;4.15;;;2.47;;
22557;SDS011;11445;53.816;8.902;2023-06-14T00:41:16;6.93;;;2.80;;
22557;SDS011;11445;53.816;8.902;2023-06-14T00:43:44;5.47;;;2.80;;
22557;SDS011;11445;53.816;8.902;2023-06-14T00:46:11;7.28;;;2.70;;
22557;SDS011;11445;53.816;8.902;2023-06-14T00:48:38;4.57;;;3.20;;
22557;SDS011;11445;53.816;8.902;2023-06-14T00:51:06;5.97;;;3.05;;
22557;SDS011;11445;53.816;8.902;2023-06-14T00:53:33;3.63;;;2.50;;
22557;SDS011;11445;53.816;8.902;2023-06-14T00:56:00;5.80;;;3.13;;
22557;SDS011;11445;53.816;8.902;2023-06-14T00:58:27;7.68;;;3.08;;
22557;SDS011;11445;53.816;8.902;2023-06-14T01:00:56;9.57;;;3.30;;
22557;SDS011;11445;53.816;8.902;2023-06-14T01:03:23;13.70;;;3.50;;
22557;SDS011;11445;53.816;8.902;2023-06-14T01:05:50;6.22;;;3.17;;
22557;SDS011;11445;53.816;8.902;2023-06-14T01:08:24;6.60;;;2.97;;
22557;SDS011;11445;53.816;8.902;2023-06-14T01:11:01;7.75;;;3.60;;
22557;SDS011;11445;53.816;8.902;2023-06-14T01:13:32;3.95;;;3.10;;
22557;SDS011;11445;53.816;8.902;2023-06-14T01:16:02;3.88;;;3.05;;
22557;SDS011;11445;53.816;8.902;2023-06-14T01:18:31;6.80;;;3.35;;
22557;SDS011;11445;53.816;8.902;2023-06-14T01:20:58;4.15;;;3.33;;
22557;SDS011;11445;53.816;8.902;2023-06-14T01:23:32;7.70;;;3.53;;
22557;SDS011;11445;53.816;8.902;2023-06-14T01:25:59;6.57;;;2.92;;
22557;SDS011;11445;53.816;8.902;2023-06-14T01:28:28;6.15;;;3.28;;
22557;SDS011;11445;53.816;8.902;2023-06-14T01:30:57;7.03;;;3.28;;
22557;SDS011;11445;53.816;8.902;2023-06-14T01:33:28;4.82;;;3.38;;
22557;SDS011;11445;53.816;8.902;2023-06-14T01:35:56;9.07;;;3.33;;
22557;SDS011;11445;53.816;8.902;2023-06-14T01:38:24;10.15;;;3.33;;
22557;SDS011;11445;53.816;8.902;2023-06-14T01:40:54;8.43;;;3.72;;
22557;SDS011;11445;53.816;8.902;2023-06-14T01:43:23;8.63;;;3.50;;
22557;SDS011;11445;53.816;8.902;2023-06-14T01:45:51;4.22;;;3.20;;
22557;SDS011;11445;53.816;8.902;2023-06-14T01:48:19;8.50;;;3.33;;
22557;SDS011;11445;53.816;8.902;2023-06-14T01:50:47;6.55;;;3.17;;
22557;SDS011;11445;53.816;8.902;2023-06-14T01:53:14;6.35;;;3.60;;
22557;SDS011;11445;53.816;8.902;2023-06-14T01:55:41;12.13;;;3.15;;
22557;SDS011;11445;53.816;8.902;2023-06-14T01:58:14;5.93;;;3.47;;
22557;SDS011;11445;53.816;8.902;2023-06-14T02:00:42;8.55;;;3.10;;
22557;SDS011;11445;53.816;8.902;2023-06-14T02:03:10;5.65;;;3.10;;
22557;SDS011;11445;53.816;8.902;2023-06-14T02:05:38;6.47;;;3.58;;
22557;SDS011;11445;53.816;8.902;2023-06-14T02:08:05;8.15;;;3.45;;
22557;SDS011;11445;53.816;8.902;2023-06-14T02:10:32;4.90;;;3.15;;
22557;SDS011;11445;53.816;8.902;2023-06-14T02:12:59;5.07;;;3.03;;
22557;SDS011;11445;53.816;8.902;2023-06-14T02:15:27;7.28;;;3.13;;
22557;SDS011;11445;53.816;8.902;2023-06-14T02:17:58;8.55;;;3.25;;
22557;SDS011;11445;53.816;8.902;2023-06-14T02:20:26;8.30;;;3.40;;
22557;SDS011;11445;53.816;8.902;2023-06-14T02:22:53;6.68;;;3.03;;
22557;SDS011;11445;53.816;8.902;2023-06-14T02:25:20;8.77;;;3.58;;
22557;SDS011;11445;53.816;8.902;2023-06-14T02:27:47;4.53;;;3.30;;
22557;SDS011;11445;53.816;8.902;2023-06-14T02:30:14;6.70;;;3.28;;
22557;SDS011;11445;53.816;8.902;2023-06-14T02:32:42;4.95;;;3.60;;
22557;SDS011;11445;53.816;8.902;2023-06-14T02:35:09;5.85;;;3.33;;
22557;SDS011;11445;53.816;8.902;2023-06-14T02:37:36;6.28;;;3.47;;
22557;SDS011;11445;53.816;8.902;2023-06-14T02:40:04;4.78;;;3.40;;
22557;SDS011;11445;53.816;8.902;2023-06-14T02:42:32;10.38;;;4.07;;
22557;SDS011;11445;53.816;8.902;2023-06-14T02:44:58;7.40;;;3.58;;
22557;SDS011;11445;53.816;8.902;2023-06-14T02:47:25;8.32;;;3.90;;
22557;SDS011;11445;53.816;8.902;2023-06-14T02:49:53;5.70;;;3.60;;
22557;SDS011;11445;53.816;8.902;2023-06-14T02:52:20;5.30;;;3.08;;
22557;SDS011;11445;53.816;8.902;2023-06-14T02:54:50;5.20;;;3.22;;
22557;SDS011;11445;53.816;8.902;2023-06-14T02:57:17;7.05;;;3.80;;
22557;SDS011;11445;53.816;8.902;2023-06-14T02:59:43;4.80;;;3.35;;
22557;SDS011;11445;53.816;8.902;2023-06-14T03:02:10;7.80;;;3.38;;
22557;SDS011;11445;53.816;8.902;2023-06-14T03:04:37;6.88;;;3.35;;
22557;SDS011;11445;53.816;8.902;2023-06-14T03:07:06;8.30;;;3.30;;
22557;SDS011;11445;53.816;8.902;2023-06-14T03:09:34;6.00;;;3.42;;
22557;SDS011;11445;53.816;8.902;2023-06-14T03:12:02;8.68;;;3.65;;
22557;SDS011;11445;53.816;8.902;2023-06-14T03:14:29;5.68;;;3.40;;
22557;SDS011;11445;53.816;8.902;2023-06-14T03:16:56;9.23;;;3.72;;
22557;SDS011;11445;53.816;8.902;2023-06-14T03:19:24;7.00;;;3.92;;
22557;SDS011;11445;53.816;8.902;2023-06-14T03:21:51;8.25;;;3.58;;
22557;SDS011;11445;53.816;8.902;2023-06-14T03:24:20;8.15;;;3.67;;
22557;SDS011;11445;53.816;8.902;2023-06-14T03:26:46;8.30;;;3.60;;
22557;SDS011;11445;53.816;8.902;2023-06-14T03:29:13;11.45;;;4.35;;
22557;SDS011;11445;53.816;8.902;2023-06-14T03:31:55;7.20;;;3.97;;
22557;SDS011;11445;53.816;8.902;2023-06-14T03:34:23;10.13;;;3.83;;
22557;SDS011;11445;53.816;8.902;2023-06-14T03:36:50;8.45;;;3.83;;
22557;SDS011;11445;53.816;8.902;2023-06-14T03:39:16;6.97;;;3.63;;
22557;SDS011;11445;53.816;8.902;2023-06-14T03:41:44;8.15;;;4.22;;
22557;SDS011;11445;53.816;8.902;2023-06-14T03:44:13;10.30;;;4.30;;
22557;SDS011;11445;53.816;8.902;2023-06-14T03:46:41;6.38;;;3.65;;
22557;SDS011;11445;53.816;8.902;2023-06-14T03:49:08;9.45;;;3.92;;
22557;SDS011;11445;53.816;8.902;2023-06-14T03:51:35;10.70;;;4.13;;
22557;SDS011;11445;53.816;8.902;2023-06-14T03:54:02;6.57;;;3.92;;
22557;SDS011;11445;53.816;8.902;2023-06-14T03:56:29;7.40;;;4.05;;
22557;SDS011;11445;53.816;8.902;2023-06-14T03:58:57;6.00;;;3.88;;
22557;SDS011;11445;53.816;8.902;2023-06-14T04:01:24;7.18;;;4.18;;
22557;SDS011;11445;53.816;8.902;2023-06-14T04:03:54;8.18;;;3.53;;
22557;SDS011;11445;53.816;8.902;2023-06-14T04:06:21;8.10;;;3.92;;
22557;SDS011;11445;53.816;8.902;2023-06-14T04:08:50;8.77;;;4.82;;
22557;SDS011;11445;53.816;8.902;2023-06-14T04:11:17;5.78;;;4.03;;
22557;SDS011;11445;53.816;8.902;2023-06-14T04:13:44;8.43;;;4.28;;
22557;SDS011;11445;53.816;8.902;2023-06-14T04:16:13;10.55;;;5.00;;
22557;SDS011;11445;53.816;8.902;2023-06-14T04:18:40;6.57;;;4.25;;
22557;SDS011;11445;53.816;8.902;2023-06-14T04:21:07;10.80;;;4.00;;
22557;SDS011;11445;53.816;8.902;2023-06-14T04:23:34;11.20;;;5.07;;
22557;SDS011;11445;53.816;8.902;2023-06-14T04:26:01;10.57;;;4.22;;
22557;SDS011;11445;53.816;8.902;2023-06-14T04:28:28;9.75;;;4.55;;
22557;SDS011;11445;53.816;8.902;2023-06-14T04:30:55;12.45;;;5.03;;
22557;SDS011;11445;53.816;8.902;2023-06-14T04:33:23;6.95;;;4.53;;
22557;SDS011;11445;53.816;8.902;2023-06-14T04:35:50;9.88;;;4.95;;
22557;SDS011;11445;53.816;8.902;2023-06-14T04:38:18;14.50;;;5.53;;
22557;SDS011;11445;53.816;8.902;2023-06-14T04:40:49;9.02;;;5.25;;
22557;SDS011;11445;53.816;8.902;2023-06-14T04:43:18;12.32;;;4.85;;
22557;SDS011;11445;53.816;8.902;2023-06-14T04:45:51;9.38;;;4.65;;
22557;SDS011;11445;53.816;8.902;2023-06-14T04:48:19;11.52;;;4.75;;
22557;SDS011;11445;53.816;8.902;2023-06-14T04:50:48;15.48;;;5.03;;
22557;SDS011;11445;53.816;8.902;2023-06-14T04:53:18;7.05;;;4.57;;
22557;SDS011;11445;53.816;8.902;2023-06-14T04:55:46;8.20;;;4.82;;
22557;SDS011;11445;53.816;8.902;2023-06-14T04:58:13;10.07;;;5.00;;
22557;SDS011;11445;53.816;8.902;2023-06-14T05:00:40;11.10;;;4.45;;
22557;SDS011;11445;53.816;8.902;2023-06-14T05:03:08;8.02;;;4.95;;
22557;SDS011;11445;53.816;8.902;2023-06-14T05:05:38;8.10;;;4.20;;
22557;SDS011;11445;53.816;8.902;2023-06-14T05:08:07;8.18;;;4.47;;
22557;SDS011;11445;53.816;8.902;2023-06-14T05:10:34;10.80;;;5.05;;
22557;SDS011;11445;53.816;8.902;2023-06-14T05:13:01;15.05;;;5.32;;
22557;SDS011;11445;53.816;8.902;2023-06-14T05:15:28;6.68;;;4.28;;
22557;SDS011;11445;53.816;8.902;2023-06-14T05:17:55;12.98;;;5.25;;
22557;SDS011;11445;53.816;8.902;2023-06-14T05:20:22;8.15;;;5.00;;
22557;SDS011;11445;53.816;8.902;2023-06-14T05:22:50;7.32;;;4.80;;
22557;SDS011;11445;53.816;8.902;2023-06-14T05:25:19;9.48;;;4.80;;
22557;SDS011;11445;53.816;8.902;2023-06-14T05:27:46;5.63;;;4.35;;
22557;SDS011;11445;53.816;8.902;2023-06-14T05:30:14;5.97;;;4.68;;
22557;SDS011;11445;53.816;8.902;2023-06-14T05:32:41;12.35;;;4.57;;
22557;SDS011;11445;53.816;8.902;2023-06-14T05:35:08;8.95;;;4.22;;
22557;SDS011;11445;53.816;8.902;2023-06-14T05:37:35;9.48;;;4.35;;
22557;SDS011;11445;53.816;8.902;2023-06-14T05:40:01;9.45;;;4.93;;
22557;SDS011;11445;53.816;8.902;2023-06-14T05:42:32;8.30;;;4.40;;
22557;SDS011;11445;53.816;8.902;2023-06-14T05:44:59;7.72;;;4.28;;
22557;SDS011;11445;53.816;8.902;2023-06-14T05:47:26;11.48;;;4.68;;
22557;SDS011;11445;53.816;8.902;2023-06-14T05:49:53;10.20;;;4.63;;
22557;SDS011;11445;53.816;8.902;2023-06-14T05:52:20;7.72;;;4.13;;
22557;SDS011;11445;53.816;8.902;2023-06-14T05:54:47;9.60;;;4.95;;
22557;SDS011;11445;53.816;8.902;2023-06-14T05:57:14;9.65;;;4.75;;
22557;SDS011;11445;53.816;8.902;2023-06-14T05:59:42;13.73;;;4.97;;
22557;SDS011;11445;53.816;8.902;2023-06-14T06:02:09;15.00;;;4.72;;
22557;SDS011;11445;53.816;8.902;2023-06-14T06:04:36;12.82;;;4.70;;
22557;SDS011;11445;53.816;8.902;2023-06-14T06:07:03;9.63;;;4.53;;
22557;SDS011;11445;53.816;8.902;2023-06-14T06:09:30;18.10;;;4.70;;
22557;SDS011;11445;53.816;8.902;2023-06-14T06:11:57;11.35;;;4.57;;
22557;SDS011;11445;53.816;8.902;2023-06-14T06:14:24;9.77;;;4.88;;
22557;SDS011;11445;53.816;8.902;2023-06-14T06:16:52;10.98;;;4.43;;
22557;SDS011;11445;53.816;8.902;2023-06-14T06:19:19;13.35;;;4.75;;
22557;SDS011;11445;53.816;8.902;2023-06-14T06:21:46;11.30;;;3.97;;
22557;SDS011;11445;53.816;8.902;2023-06-14T06:24:13;10.82;;;3.70;;
22557;SDS011;11445;53.816;8.902;2023-06-14T06:26:40;9.85;;;4.03;;
22557;SDS011;11445;53.816;8.902;2023-06-14T06:29:07;17.83;;;3.42;;
22557;SDS011;11445;53.816;8.902;2023-06-14T06:31:33;9.10;;;4.00;;
22557;SDS011;11445;53.816;8.902;2023-06-14T06:34:02;4.18;;;3.30;;
22557;SDS011;11445;53.816;8.902;2023-06-14T06:36:28;9.93;;;3.42;;
22557;SDS011;11445;53.816;8.902;2023-06-14T06:38:55;17.50;;;3.90;;
22557;SDS011;11445;53.816;8.902;2023-06-14T06:41:22;5.35;;;3.50;;
22557;SDS011;11445;53.816;8.902;2023-06-14T06:43:49;7.45;;;3.58;;
22557;SDS011;11445;53.816;8.902;2023-06-14T06:46:16;9.13;;;3.78;;
22557;SDS011;11445;53.816;8.902;2023-06-14T06:48:44;6.20;;;3.35;;
22557;SDS011;11445;53.816;8.902;2023-06-14T06:51:12;8.38;;;3.20;;
22557;SDS011;11445;53.816;8.902;2023-06-14T06:53:41;6.38;;;3.08;;
22557;SDS011;11445;53.816;8.902;2023-06-14T06:56:09;6.68;;;3.17;;
22557;SDS011;11445;53.816;8.902;2023-06-14T06:58:36;10.00;;;3.60;;
22557;SDS011;11445;53.816;8.902;2023-06-14T07:01:03;8.48;;;3.20;;
22557;SDS011;11445;53.816;8.902;2023-06-14T07:03:29;6.55;;;3.08;;
22557;SDS011;11445;53.816;8.902;2023-06-14T07:05:56;10.50;;;3.33;;
22557;SDS011;11445;53.816;8.902;2023-06-14T07:08:24;7.10;;;3.50;;
22557;SDS011;11445;53.816;8.902;2023-06-14T07:10:52;10.40;;;3.95;;
22557;SDS011;11445;53.816;8.902;2023-06-14T07:13:19;4.50;;;2.75;;
22557;SDS011;11445;53.816;8.902;2023-06-14T07:15:46;7.70;;;3.05;;
22557;SDS011;11445;53.816;8.902;2023-06-14T07:18:13;10.85;;;3.25;;
22557;SDS011;11445;53.816;8.902;2023-06-14T07:20:40;5.35;;;2.85;;
22557;SDS011;11445;53.816;8.902;2023-06-14T07:23:08;9.13;;;3.53;;
22557;SDS011;11445;53.816;8.902;2023-06-14T07:25:37;7.35;;;2.95;;
22557;SDS011;11445;53.816;8.902;2023-06-14T07:28:04;7.57;;;3.10;;
22557;SDS011;11445;53.816;8.902;2023-06-14T07:30:31;8.40;;;3.25;;
22557;SDS011;11445;53.816;8.902;2023-06-14T07:32:58;6.22;;;3.10;;
22557;SDS011;11445;53.816;8.902;2023-06-14T07:35:25;5.55;;;3.47;;
22557;SDS011;11445;53.816;8.902;2023-06-14T07:37:51;4.78;;;3.25;;
22557;SDS011;11445;53.816;8.902;2023-06-14T07:40:18;4.63;;;2.92;;
22557;SDS011;11445;53.816;8.902;2023-06-14T07:42:46;11.32;;;3.08;;
22557;SDS011;11445;53.816;8.902;2023-06-14T07:45:15;5.38;;;3.30;;
22557;SDS011;11445;53.816;8.902;2023-06-14T07:47:42;10.73;;;2.95;;
22557;SDS011;11445;53.816;8.902;2023-06-14T07:50:09;12.23;;;3.00;;
22557;SDS011;11445;53.816;8.902;2023-06-14T07:52:36;3.97;;;2.30;;
22557;SDS011;11445;53.816;8.902;2023-06-14T07:55:03;7.40;;;2.42;;
22557;SDS011;11445;53.816;8.902;2023-06-14T07:57:31;5.18;;;3.10;;
22557;SDS011;11445;53.816;8.902;2023-06-14T07:59:59;5.90;;;2.95;;
22557;SDS011;11445;53.816;8.902;2023-06-14T08:02:26;9.65;;;3.50;;
22557;SDS011;11445;53.816;8.902;2023-06-14T08:04:53;9.20;;;3.67;;
22557;SDS011;11445;53.816;8.902;2023-06-14T08:07:20;8.93;;;3.20;;
22557;SDS011;11445;53.816;8.902;2023-06-14T08:09:46;10.98;;;3.92;;
22557;SDS011;11445;53.816;8.902;2023-06-14T08:12:13;7.40;;;3.50;;
22557;SDS011;11445;53.816;8.902;2023-06-14T08:14:41;10.60;;;3.70;;
22557;SDS011;11445;53.816;8.902;2023-06-14T08:17:10;5.50;;;3.28;;
22557;SDS011;11445;53.816;8.902;2023-06-14T08:19:37;8.75;;;3.20;;
22557;SDS011;11445;53.816;8.902;2023-06-14T08:22:04;7.75;;;3.20;;
22557;SDS011;11445;53.816;8.902;2023-06-14T08:24:31;11.30;;;2.83;;
22557;SDS011;11445;53.816;8.902;2023-06-14T08:26:58;7.95;;;2.30;;
22557;SDS011;11445;53.816;8.902;2023-06-14T08:29:26;4.15;;;2.65;;
22557;SDS011;11445;53.816;8.902;2023-06-14T08:31:55;5.78;;;2.17;;
22557;SDS011;11445;53.816;8.902;2023-06-14T08:34:24;9.18;;;3.03;;
22557;SDS011;11445;53.816;8.902;2023-06-14T08:36:51;5.70;;;2.53;;
22557;SDS011;11445;53.816;8.902;2023-06-14T08:39:18;5.07;;;2.78;;
22557;SDS011;11445;53.816;8.902;2023-06-14T08:41:46;4.15;;;2.33;;
22557;SDS011;11445;53.816;8.902;2023-06-14T08:44:13;5.45;;;2.42;;
22557;SDS011;11445;53.816;8.902;2023-06-14T08:46:40;4.22;;;2.70;;
22557;SDS011;11445;53.816;8.902;2023-06-14T08:49:08;5.60;;;2.53;;
22557;SDS011;11445;53.816;8.902;2023-06-14T08:51:40;4.20;;;2.40;;
22557;SDS011;11445;53.816;8.902;2023-06-14T08:54:08;3.38;;;2.33;;
22557;SDS011;11445;53.816;8.902;2023-06-14T08:56:37;13.65;;;2.92;;
22557;SDS011;11445;53.816;8.902;2023-06-14T08:59:06;4.95;;;2.53;;
22557;SDS011;11445;53.816;8.902;2023-06-14T09:01:36;2.80;;;2.45;;
22557;SDS011;11445;53.816;8.902;2023-06-14T09:04:03;4.82;;;2.78;;
22557;SDS011;11445;53.816;8.902;2023-06-14T09:06:31;4.30;;;2.63;;
22557;SDS011;11445;53.816;8.902;2023-06-14T09:08:59;8.70;;;2.22;;
22557;SDS011;11445;53.816;8.902;2023-06-14T09:11:26;59.78;;;5.10;;
22557;SDS011;11445;53.816;8.902;2023-06-14T09:13:53;4.13;;;2.28;;
22557;SDS011;11445;53.816;8.902;2023-06-14T09:16:19;15.23;;;2.83;;
22557;SDS011;11445;53.816;8.902;2023-06-14T09:18:46;3.78;;;2.47;;
22557;SDS011;11445;53.816;8.902;2023-06-14T09:21:14;7.78;;;2.47;;
22557;SDS011;11445;53.816;8.902;2023-06-14T09:23:43;4.93;;;2.70;;
22557;SDS011;11445;53.816;8.902;2023-06-14T09:26:12;4.93;;;2.50;;
22557;SDS011;11445;53.816;8.902;2023-06-14T09:28:43;7.75;;;2.83;;
22557;SDS011;11445;53.816;8.902;2023-06-14T09:31:11;4.82;;;2.65;;
22557;SDS011;11445;53.816;8.902;2023-06-14T09:33:38;8.25;;;2.63;;
22557;SDS011;11445;53.816;8.902;2023-06-14T09:36:09;3.40;;;2.63;;
22557;SDS011;11445;53.816;8.902;2023-06-14T09:38:39;5.95;;;2.60;;
22557;SDS011;11445;53.816;8.902;2023-06-14T09:41:06;6.30;;;2.40;;
22557;SDS011;11445;53.816;8.902;2023-06-14T09:43:35;6.63;;;2.40;;
22557;SDS011;11445;53.816;8.902;2023-06-14T09:46:03;4.85;;;2.45;;
22557;SDS011;11445;53.816;8.902;2023-06-14T09:48:32;6.30;;;2.38;;
22557;SDS011;11445;53.816;8.902;2023-06-14T09:50:59;2.85;;;2.30;;
22557;SDS011;11445;53.816;8.902;2023-06-14T09:53:29;7.32;;;2.70;;
22557;SDS011;11445;53.816;8.902;2023-06-14T09:55:56;5.57;;;2.55;;
22557;SDS011;11445;53.816;8.902;2023-06-14T09:58:24;2.78;;;2.20;;
22557;SDS011;11445;53.816;8.902;2023-06-14T10:00:55;4.43;;;2.47;;
22557;SDS011;11445;53.816;8.902;2023-06-14T10:03:24;2.88;;;2.35;;
22557;SDS011;11445;53.816;8.902;2023-06-14T10:05:54;8.65;;;2.40;;
22557;SDS011;11445;53.816;8.902;2023-06-14T10:08:27;2.70;;;2.20;;
22557;SDS011;11445;53.816;8.902;2023-06-14T10:10:58;5.25;;;2.58;;
22557;SDS011;11445;53.816;8.902;2023-06-14T10:13:25;6.90;;;2.80;;
22557;SDS011;11445;53.816;8.902;2023-06-14T10:15:58;3.78;;;2.25;;
22557;SDS011;11445;53.816;8.902;2023-06-14T10:18:33;7.38;;;2.72;;
22557;SDS011;11445;53.816;8.902;2023-06-14T10:21:08;3.53;;;2.40;;
22557;SDS011;11445;53.816;8.902;2023-06-14T10:23:42;4.07;;;2.33;;
22557;SDS011;11445;53.816;8.902;2023-06-14T10:26:17;5.30;;;2.45;;
22557;SDS011;11445;53.816;8.902;2023-06-14T10:28:55;6.13;;;2.63;;
22557;SDS011;11445;53.816;8.902;2023-06-14T10:31:43;5.97;;;2.22;;
22557;SDS011;11445;53.816;8.902;2023-06-14T10:34:11;4.70;;;2.30;;
22557;SDS011;11445;53.816;8.902;2023-06-14T10:36:40;3.75;;;2.40;;
22557;SDS011;11445;53.816;8.902;2023-06-14T10:39:10;2.40;;;2.15;;
22557;SDS011;11445;53.816;8.902;2023-06-14T10:41:42;6.88;;;2.30;;
22557;SDS011;11445;53.816;8.902;2023-06-14T10:47:08;6.90;;;2.50;;
22557;SDS011;11445;53.816;8.902;2023-06-14T10:49:37;2.72;;;2.10;;
22557;SDS011;11445;53.816;8.902;2023-06-14T10:52:09;13.13;;;2.33;;
22557;SDS011;11445;53.816;8.902;2023-06-14T10:54:56;5.70;;;2.33;;
22557;SDS011;11445;53.816;8.902;2023-06-14T10:57:26;4.10;;;2.42;;
22557;SDS011;11445;53.816;8.902;2023-06-14T10:59:53;4.32;;;2.45;;
22557;SDS011;11445;53.816;8.902;2023-06-14T11:02:42;5.57;;;2.40;;
22557;SDS011;11445;53.816;8.902;2023-06-14T11:05:21;3.67;;;2.47;;
22557;SDS011;11445;53.816;8.902;2023-06-14T11:07:55;11.37;;;2.37;;
22557;SDS011;11445;53.816;8.902;2023-06-14T11:10:37;7.80;;;2.40;;
22557;SDS011;11445;53.816;8.902;2023-06-14T11:13:04;5.50;;;2.25;;
22557;SDS011;11445;53.816;8.902;2023-06-14T11:15:31;4.95;;;2.08;;
22557;SDS011;11445;53.816;8.902;2023-06-14T11:18:01;9.95;;;2.15;;
22557;SDS011;11445;53.816;8.902;2023-06-14T11:20:30;8.13;;;2.33;;
22557;SDS011;11445;53.816;8.902;2023-06-14T11:22:58;3.72;;;2.30;;
22557;SDS011;11445;53.816;8.902;2023-06-14T11:25:25;5.90;;;2.20;;
22557;SDS011;11445;53.816;8.902;2023-06-14T11:27:53;8.65;;;2.20;;
22557;SDS011;11445;53.816;8.902;2023-06-14T11:30:21;3.00;;;2.28;;
22557;SDS011;11445;53.816;8.902;2023-06-14T11:32:48;6.53;;;2.33;;
22557;SDS011;11445;53.816;8.902;2023-06-14T11:35:18;7.18;;;2.85;;
22557;SDS011;11445;53.816;8.902;2023-06-14T11:37:48;4.13;;;2.38;;
22557;SDS011;11445;53.816;8.902;2023-06-14T11:40:19;5.00;;;2.17;;
22557;SDS011;11445;53.816;8.902;2023-06-14T11:42:49;5.63;;;2.95;;
22557;SDS011;11445;53.816;8.902;2023-06-14T11:45:18;5.13;;;2.15;;
22557;SDS011;11445;53.816;8.902;2023-06-14T11:47:44;6.05;;;2.30;;
22557;SDS011;11445;53.816;8.902;2023-06-14T11:50:11;7.78;;;2.20;;
22557;SDS011;11445;53.816;8.902;2023-06-14T11:52:39;7.45;;;2.90;;
22557;SDS011;11445;53.816;8.902;2023-06-14T11:55:06;5.13;;;2.45;;
22557;SDS011;11445;53.816;8.902;2023-06-14T11:57:34;7.65;;;2.38;;
22557;SDS011;11445;53.816;8.902;2023-06-14T12:00:03;5.25;;;2.17;;
22557;SDS011;11445;53.816;8.902;2023-06-14T12:02:32;4.22;;;2.38;;
22557;SDS011;11445;53.816;8.902;2023-06-14T12:05:03;4.63;;;2.50;;
22557;SDS011;11445;53.816;8.902;2023-06-14T12:10:07;4.45;;;2.60;;
22557;SDS011;11445;53.816;8.902;2023-06-14T12:12:36;3.00;;;2.00;;
22557;SDS011;11445;53.816;8.902;2023-06-14T12:15:03;3.58;;;2.53;;
22557;SDS011;11445;53.816;8.902;2023-06-14T12:17:31;6.30;;;2.58;;
22557;SDS011;11445;53.816;8.902;2023-06-14T12:20:04;3.13;;;2.50;;
22557;SDS011;11445;53.816;8.902;2023-06-14T12:22:35;7.18;;;2.75;;
22557;SDS011;11445;53.816;8.902;2023-06-14T12:25:01;7.82;;;2.30;;
22557;SDS011;11445;53.816;8.902;2023-06-14T12:27:30;3.38;;;2.40;;
22557;SDS011;11445;53.816;8.902;2023-06-14T12:29:58;4.70;;;2.70;;
22557;SDS011;11445;53.816;8.902;2023-06-14T12:32:26;4.97;;;2.42;;
22557;SDS011;11445;53.816;8.902;2023-06-14T12:34:53;7.22;;;2.63;;
22557;SDS011;11445;53.816;8.902;2023-06-14T12:37:19;5.30;;;2.55;;
22557;SDS011;11445;53.816;8.902;2023-06-14T12:39:46;4.43;;;2.38;;
22557;SDS011;11445;53.816;8.902;2023-06-14T12:42:13;9.98;;;2.95;;
22557;SDS011;11445;53.816;8.902;2023-06-14T12:44:41;4.82;;;2.33;;
22557;SDS011;11445;53.816;8.902;2023-06-14T12:47:08;10.13;;;3.40;;
22557;SDS011;11445;53.816;8.902;2023-06-14T12:49:35;9.45;;;2.42;;
22557;SDS011;11445;53.816;8.902;2023-06-14T12:52:02;9.32;;;2.30;;
22557;SDS011;11445;53.816;8.902;2023-06-14T12:54:30;3.10;;;2.67;;
22557;SDS011;11445;53.816;8.902;2023-06-14T12:56:56;8.45;;;2.33;;
22557;SDS011;11445;53.816;8.902;2023-06-14T12:59:23;4.03;;;2.55;;
22557;SDS011;11445;53.816;8.902;2023-06-14T13:01:51;3.08;;;2.22;;
22557;SDS011;11445;53.816;8.902;2023-06-14T13:04:19;10.45;;;2.58;;
22557;SDS011;11445;53.816;8.902;2023-06-14T13:06:45;4.88;;;2.22;;
22557;SDS011;11445;53.816;8.902;2023-06-14T13:09:12;11.60;;;2.80;;
22557;SDS011;11445;53.816;8.902;2023-06-14T13:11:40;3.17;;;2.10;;
22557;SDS011;11445;53.816;8.902;2023-06-14T13:14:10;6.40;;;2.17;;
22557;SDS011;11445;53.816;8.902;2023-06-14T13:16:37;4.35;;;2.30;;
22557;SDS011;11445;53.816;8.902;2023-06-14T13:19:05;7.22;;;2.65;;
22557;SDS011;11445;53.816;8.902;2023-06-14T13:21:32;4.45;;;2.50;;
22557;SDS011;11445;53.816;8.902;2023-06-14T13:23:59;4.75;;;2.50;;
22557;SDS011;11445;53.816;8.902;2023-06-14T13:26:26;8.32;;;2.60;;
22557;SDS011;11445;53.816;8.902;2023-06-14T13:28:53;8.77;;;2.75;;
22557;SDS011;11445;53.816;8.902;2023-06-14T13:31:19;6.65;;;2.75;;
22557;SDS011;11445;53.816;8.902;2023-06-14T13:33:46;6.53;;;2.50;;
22557;SDS011;11445;53.816;8.902;2023-06-14T13:36:14;8.38;;;2.85;;
22557;SDS011;11445;53.816;8.902;2023-06-14T13:38:41;4.63;;;2.53;;
22557;SDS011;11445;53.816;8.902;2023-06-14T13:41:08;8.00;;;2.45;;
22557;SDS011;11445;53.816;8.902;2023-06-14T13:43:35;3.70;;;2.22;;
22557;SDS011;11445;53.816;8.902;2023-06-14T13:46:02;5.72;;;2.55;;
22557;SDS011;11445;53.816;8.902;2023-06-14T13:48:28;3.80;;;2.35;;
22557;SDS011;11445;53.816;8.902;2023-06-14T13:50:55;5.32;;;2.50;;
22557;SDS011;11445;53.816;8.902;2023-06-14T13:53:24;3.65;;;2.03;;
22557;SDS011;11445;53.816;8.902;2023-06-14T13:55:51;2.40;;;2.13;;
22557;SDS011;11445;53.816;8.902;2023-06-14T13:58:19;6.05;;;2.65;;
22557;SDS011;11445;53.816;8.902;2023-06-14T14:00:46;5.03;;;2.25;;
22557;SDS011;11445;53.816;8.902;2023-06-14T14:03:13;7.22;;;2.40;;
22557;SDS011;11445;53.816;8.902;2023-06-14T14:05:40;10.98;;;2.75;;
22557;SDS011;11445;53.816;8.902;2023-06-14T14:08:06;10.38;;;3.03;;
22557;SDS011;11445;53.816;8.902;2023-06-14T14:10:34;5.03;;;2.45;;
22557;SDS011;11445;53.816;8.902;2023-06-14T14:13:01;4.28;;;2.28;;
22557;SDS011;11445;53.816;8.902;2023-06-14T14:15:28;9.57;;;2.05;;
22557;SDS011;11445;53.816;8.902;2023-06-14T14:17:55;6.57;;;2.42;;
22557;SDS011;11445;53.816;8.902;2023-06-14T14:20:22;4.60;;;2.30;;
22557;SDS011;11445;53.816;8.902;2023-06-14T14:22:49;7.63;;;2.45;;
22557;SDS011;11445;53.816;8.902;2023-06-14T14:25:16;6.90;;;2.67;;
22557;SDS011;11445;53.816;8.902;2023-06-14T14:27:44;5.30;;;2.28;;
22557;SDS011;11445;53.816;8.902;2023-06-14T14:30:11;4.82;;;2.28;;
22557;SDS011;11445;53.816;8.902;2023-06-14T14:32:39;4.70;;;2.20;;
22557;SDS011;11445;53.816;8.902;2023-06-14T14:35:06;5.25;;;2.25;;
22557;SDS011;11445;53.816;8.902;2023-06-14T14:37:33;2.67;;;2.05;;
22557;SDS011;11445;53.816;8.902;2023-06-14T14:40:00;3.15;;;2.35;;
22557;SDS011;11445;53.816;8.902;2023-06-14T14:42:28;7.85;;;2.58;;
22557;SDS011;11445;53.816;8.902;2023-06-14T14:44:56;4.88;;;2.35;;
22557;SDS011;11445;53.816;8.902;2023-06-14T14:47:23;3.75;;;2.55;;
22557;SDS011;11445;53.816;8.902;2023-06-14T14:49:50;8.50;;;2.47;;
22557;SDS011;11445;53.816;8.902;2023-06-14T14:52:17;8.52;;;2.55;;
22557;SDS011;11445;53.816;8.902;2023-06-14T14:54:43;8.07;;;2.35;;
22557;SDS011;11445;53.816;8.902;2023-06-14T14:57:10;2.75;;;2.38;;